sensor_id;sensor_type;location;lat;lon;timestamp;P1;durP1;ratioP1;P2;durP2;ratioP2
74543;SDS011;63016;55.030;38.710;2024-03-23T00:54:44;47.72;;;17.33;;
74543;SDS011;63016;55.030;38.710;2024-03-23T00:57:10;45.72;;;16.67;;
74543;SDS011;63016;55.030;38.710;2024-03-23T00:59:35;47.00;;;16.17;;
74543;SDS011;63016;55.030;38.710;2024-03-23T01:02:01;46.53;;;16.48;;
74543;SDS011;63016;55.030;38.710;2024-03-23T01:04:26;43.97;;;15.57;;
74543;SDS011;63016;55.030;38.710;2024-03-23T01:06:52;44.67;;;16.40;;
74543;SDS011;63016;55.030;38.710;2024-03-23T01:09:17;44.58;;;15.50;;
74543;SDS011;63016;55.030;38.710;2024-03-23T01:11:43;48.88;;;17.65;;
74543;SDS011;63016;55.030;38.710;2024-03-23T01:14:08;45.38;;;15.93;;
74543;SDS011;63016;55.030;38.710;2024-03-23T01:16:34;38.78;;;15.10;;
74543;SDS011;63016;55.030;38.710;2024-03-23T01:18:59;42.65;;;15.68;;
74543;SDS011;63016;55.030;38.710;2024-03-23T01:21:25;46.58;;;16.02;;
74543;SDS011;63016;55.030;38.710;2024-03-23T01:23:50;45.30;;;15.30;;
74543;SDS011;63016;55.030;38.710;2024-03-23T01:26:16;44.50;;;15.98;;
74543;SDS011;63016;55.030;38.710;2024-03-23T01:28:41;38.33;;;15.50;;
74543;SDS011;63016;55.030;38.710;2024-03-23T01:31:07;45.08;;;16.75;;
74543;SDS011;63016;55.030;38.710;2024-03-23T01:33:32;42.33;;;16.67;;
74543;SDS011;63016;55.030;38.710;2024-03-23T01:35:58;38.80;;;14.65;;
74543;SDS011;63016;55.030;38.710;2024-03-23T01:38:23;38.05;;;15.25;;
74543;SDS011;63016;55.030;38.710;2024-03-23T01:40:49;43.28;;;15.60;;
74543;SDS011;63016;55.030;38.710;2024-03-23T01:43:14;42.42;;;15.50;;
74543;SDS011;63016;55.030;38.710;2024-03-23T01:45:40;46.20;;;15.90;;
74543;SDS011;63016;55.030;38.710;2024-03-23T01:48:05;39.10;;;14.70;;
74543;SDS011;63016;55.030;38.710;2024-03-23T01:50:31;40.50;;;16.05;;
74543;SDS011;63016;55.030;38.710;2024-03-23T01:52:59;39.00;;;15.10;;
74543;SDS011;63016;55.030;38.710;2024-03-23T01:55:27;42.72;;;15.88;;
74543;SDS011;63016;55.030;38.710;2024-03-23T01:57:56;36.88;;;14.88;;
74543;SDS011;63016;55.030;38.710;2024-03-23T02:00:21;37.92;;;15.30;;
74543;SDS011;63016;55.030;38.710;2024-03-23T02:02:48;38.22;;;14.25;;
74543;SDS011;63016;55.030;38.710;2024-03-23T02:05:14;44.63;;;15.73;;
74543;SDS011;63016;55.030;38.710;2024-03-23T02:07:40;40.85;;;15.10;;
74543;SDS011;63016;55.030;38.710;2024-03-23T02:10:07;39.70;;;15.00;;
74543;SDS011;63016;55.030;38.710;2024-03-23T02:12:33;35.72;;;14.80;;
74543;SDS011;63016;55.030;38.710;2024-03-23T02:14:58;41.35;;;15.60;;
74543;SDS011;63016;55.030;38.710;2024-03-23T02:17:24;41.45;;;16.05;;
74543;SDS011;63016;55.030;38.710;2024-03-23T02:19:50;36.58;;;15.10;;
74543;SDS011;63016;55.030;38.710;2024-03-23T02:22:15;43.53;;;14.88;;
74543;SDS011;63016;55.030;38.710;2024-03-23T02:24:42;35.78;;;14.65;;
74543;SDS011;63016;55.030;38.710;2024-03-23T02:27:07;37.47;;;14.98;;
74543;SDS011;63016;55.030;38.710;2024-03-23T02:29:33;38.03;;;15.00;;
74543;SDS011;63016;55.030;38.710;2024-03-23T02:31:58;37.90;;;13.68;;
74543;SDS011;63016;55.030;38.710;2024-03-23T02:34:24;36.20;;;14.40;;
74543;SDS011;63016;55.030;38.710;2024-03-23T02:36:50;43.47;;;15.40;;
74543;SDS011;63016;55.030;38.710;2024-03-23T02:39:15;41.80;;;15.93;;
74543;SDS011;63016;55.030;38.710;2024-03-23T02:41:41;39.78;;;15.20;;
74543;SDS011;63016;55.030;38.710;2024-03-23T02:44:06;37.75;;;14.77;;
74543;SDS011;63016;55.030;38.710;2024-03-23T02:46:32;38.45;;;15.02;;
74543;SDS011;63016;55.030;38.710;2024-03-23T02:48:57;37.15;;;14.60;;
74543;SDS011;63016;55.030;38.710;2024-03-23T02:51:23;38.60;;;15.35;;
74543;SDS011;63016;55.030;38.710;2024-03-23T02:53:48;40.13;;;15.30;;
74543;SDS011;63016;55.030;38.710;2024-03-23T02:56:14;34.80;;;14.15;;
74543;SDS011;63016;55.030;38.710;2024-03-23T02:58:42;37.55;;;14.77;;
74543;SDS011;63016;55.030;38.710;2024-03-23T03:01:08;38.92;;;15.10;;
74543;SDS011;63016;55.030;38.710;2024-03-23T03:03:33;32.80;;;14.90;;
74543;SDS011;63016;55.030;38.710;2024-03-23T03:05:59;37.60;;;14.90;;
74543;SDS011;63016;55.030;38.710;2024-03-23T03:08:24;35.72;;;15.30;;
74543;SDS011;63016;55.030;38.710;2024-03-23T03:10:50;38.25;;;15.40;;
74543;SDS011;63016;55.030;38.710;2024-03-23T03:13:16;36.92;;;14.80;;
74543;SDS011;63016;55.030;38.710;2024-03-23T03:15:42;37.90;;;15.02;;
74543;SDS011;63016;55.030;38.710;2024-03-23T03:18:09;35.58;;;14.57;;
74543;SDS011;63016;55.030;38.710;2024-03-23T03:20:37;37.42;;;15.48;;
74543;SDS011;63016;55.030;38.710;2024-03-23T03:23:06;36.67;;;15.43;;
74543;SDS011;63016;55.030;38.710;2024-03-23T03:25:32;39.42;;;15.50;;
74543;SDS011;63016;55.030;38.710;2024-03-23T03:27:57;35.05;;;15.05;;
74543;SDS011;63016;55.030;38.710;2024-03-23T03:30:23;37.22;;;15.18;;
74543;SDS011;63016;55.030;38.710;2024-03-23T03:32:49;38.30;;;14.90;;
74543;SDS011;63016;55.030;38.710;2024-03-23T03:35:15;35.15;;;14.98;;
74543;SDS011;63016;55.030;38.710;2024-03-23T03:37:40;39.00;;;15.60;;
74543;SDS011;63016;55.030;38.710;2024-03-23T03:40:06;34.97;;;14.80;;
74543;SDS011;63016;55.030;38.710;2024-03-23T03:42:34;36.25;;;14.48;;
74543;SDS011;63016;55.030;38.710;2024-03-23T03:44:59;33.88;;;15.80;;
74543;SDS011;63016;55.030;38.710;2024-03-23T03:47:25;34.95;;;14.65;;
74543;SDS011;63016;55.030;38.710;2024-03-23T03:49:50;36.22;;;15.52;;
74543;SDS011;63016;55.030;38.710;2024-03-23T03:52:16;37.97;;;16.05;;
74543;SDS011;63016;55.030;38.710;2024-03-23T03:54:41;36.42;;;15.55;;
74543;SDS011;63016;55.030;38.710;2024-03-23T03:57:07;38.85;;;15.50;;
74543;SDS011;63016;55.030;38.710;2024-03-23T03:59:32;40.38;;;15.82;;
74543;SDS011;63016;55.030;38.710;2024-03-23T04:01:58;39.50;;;16.20;;
74543;SDS011;63016;55.030;38.710;2024-03-23T04:04:23;34.45;;;14.95;;
74543;SDS011;63016;55.030;38.710;2024-03-23T04:06:49;38.63;;;16.60;;
74543;SDS011;63016;55.030;38.710;2024-03-23T04:09:14;36.03;;;15.23;;
74543;SDS011;63016;55.030;38.710;2024-03-23T04:11:40;33.67;;;16.17;;
74543;SDS011;63016;55.030;38.710;2024-03-23T04:14:05;34.30;;;15.10;;
74543;SDS011;63016;55.030;38.710;2024-03-23T04:16:33;36.58;;;14.98;;
74543;SDS011;63016;55.030;38.710;2024-03-23T04:19:00;32.95;;;15.02;;
74543;SDS011;63016;55.030;38.710;2024-03-23T04:21:26;33.63;;;14.63;;
74543;SDS011;63016;55.030;38.710;2024-03-23T04:23:52;36.80;;;15.48;;
74543;SDS011;63016;55.030;38.710;2024-03-23T04:26:17;33.78;;;13.95;;
74543;SDS011;63016;55.030;38.710;2024-03-23T04:28:43;30.98;;;14.25;;
74543;SDS011;63016;55.030;38.710;2024-03-23T04:31:08;34.95;;;15.23;;
74543;SDS011;63016;55.030;38.710;2024-03-23T04:33:34;31.27;;;14.30;;
74543;SDS011;63016;55.030;38.710;2024-03-23T04:36:00;36.75;;;15.02;;
74543;SDS011;63016;55.030;38.710;2024-03-23T04:38:25;38.15;;;14.68;;
74543;SDS011;63016;55.030;38.710;2024-03-23T04:40:57;34.47;;;14.57;;
74543;SDS011;63016;55.030;38.710;2024-03-23T04:43:23;31.98;;;14.63;;
74543;SDS011;63016;55.030;38.710;2024-03-23T04:45:50;33.10;;;15.52;;
74543;SDS011;63016;55.030;38.710;2024-03-23T04:48:15;29.40;;;14.30;;
74543;SDS011;63016;55.030;38.710;2024-03-23T04:50:41;33.35;;;14.65;;
74543;SDS011;63016;55.030;38.710;2024-03-23T04:53:07;32.20;;;13.35;;
74543;SDS011;63016;55.030;38.710;2024-03-23T04:55:32;34.10;;;15.05;;
74543;SDS011;63016;55.030;38.710;2024-03-23T04:57:58;37.72;;;14.93;;
74543;SDS011;63016;55.030;38.710;2024-03-23T05:00:23;33.60;;;14.65;;
74543;SDS011;63016;55.030;38.710;2024-03-23T05:02:50;28.33;;;14.18;;
74543;SDS011;63016;55.030;38.710;2024-03-23T05:05:15;31.33;;;14.23;;
74543;SDS011;63016;55.030;38.710;2024-03-23T05:07:41;29.42;;;13.68;;
74543;SDS011;63016;55.030;38.710;2024-03-23T05:10:07;30.70;;;14.25;;
74543;SDS011;63016;55.030;38.710;2024-03-23T05:12:36;29.38;;;13.52;;
74543;SDS011;63016;55.030;38.710;2024-03-23T05:15:03;28.92;;;13.77;;
74543;SDS011;63016;55.030;38.710;2024-03-23T05:17:29;29.98;;;14.30;;
74543;SDS011;63016;55.030;38.710;2024-03-23T05:19:56;32.85;;;14.10;;
74543;SDS011;63016;55.030;38.710;2024-03-23T05:22:22;32.28;;;14.00;;
74543;SDS011;63016;55.030;38.710;2024-03-23T05:24:47;29.23;;;13.70;;
74543;SDS011;63016;55.030;38.710;2024-03-23T05:27:13;32.90;;;14.27;;
74543;SDS011;63016;55.030;38.710;2024-03-23T05:29:38;28.73;;;13.77;;
74543;SDS011;63016;55.030;38.710;2024-03-23T05:32:04;33.60;;;14.32;;
74543;SDS011;63016;55.030;38.710;2024-03-23T05:34:30;29.80;;;14.05;;
74543;SDS011;63016;55.030;38.710;2024-03-23T05:36:55;27.95;;;13.50;;
74543;SDS011;63016;55.030;38.710;2024-03-23T05:39:21;28.42;;;13.13;;
74543;SDS011;63016;55.030;38.710;2024-03-23T05:41:47;29.35;;;14.45;;
74543;SDS011;63016;55.030;38.710;2024-03-23T05:44:13;29.75;;;14.25;;
74543;SDS011;63016;55.030;38.710;2024-03-23T05:46:40;29.13;;;13.68;;
74543;SDS011;63016;55.030;38.710;2024-03-23T05:49:06;29.15;;;14.02;;
74543;SDS011;63016;55.030;38.710;2024-03-23T05:51:31;33.55;;;14.40;;
74543;SDS011;63016;55.030;38.710;2024-03-23T05:53:57;31.17;;;13.95;;
74543;SDS011;63016;55.030;38.710;2024-03-23T05:56:22;29.92;;;13.77;;
74543;SDS011;63016;55.030;38.710;2024-03-23T05:58:48;30.00;;;13.15;;
74543;SDS011;63016;55.030;38.710;2024-03-23T06:01:13;29.95;;;14.73;;
74543;SDS011;63016;55.030;38.710;2024-03-23T06:03:39;29.02;;;13.13;;
74543;SDS011;63016;55.030;38.710;2024-03-23T06:06:04;27.63;;;13.00;;
74543;SDS011;63016;55.030;38.710;2024-03-23T06:08:35;31.40;;;13.20;;
74543;SDS011;63016;55.030;38.710;2024-03-23T06:11:01;33.63;;;14.15;;
74543;SDS011;63016;55.030;38.710;2024-03-23T06:13:26;32.45;;;13.88;;
74543;SDS011;63016;55.030;38.710;2024-03-23T06:15:55;30.88;;;13.23;;
74543;SDS011;63016;55.030;38.710;2024-03-23T06:18:20;31.30;;;13.88;;
74543;SDS011;63016;55.030;38.710;2024-03-23T06:20:46;29.15;;;13.32;;
74543;SDS011;63016;55.030;38.710;2024-03-23T06:23:11;27.92;;;12.50;;
74543;SDS011;63016;55.030;38.710;2024-03-23T06:25:37;28.60;;;13.13;;
74543;SDS011;63016;55.030;38.710;2024-03-23T06:28:03;27.25;;;12.93;;
74543;SDS011;63016;55.030;38.710;2024-03-23T06:30:29;29.17;;;13.93;;
74543;SDS011;63016;55.030;38.710;2024-03-23T06:32:56;28.85;;;14.35;;
74543;SDS011;63016;55.030;38.710;2024-03-23T06:35:22;25.48;;;12.57;;
74543;SDS011;63016;55.030;38.710;2024-03-23T06:37:48;32.20;;;13.40;;
74543;SDS011;63016;55.030;38.710;2024-03-23T06:40:13;28.73;;;13.52;;
74543;SDS011;63016;55.030;38.710;2024-03-23T06:42:39;24.45;;;13.18;;
74543;SDS011;63016;55.030;38.710;2024-03-23T06:45:05;27.80;;;13.15;;
74543;SDS011;63016;55.030;38.710;2024-03-23T06:47:31;29.20;;;13.32;;
74543;SDS011;63016;55.030;38.710;2024-03-23T06:49:57;26.85;;;12.85;;
74543;SDS011;63016;55.030;38.710;2024-03-23T06:52:23;29.00;;;13.27;;
74543;SDS011;63016;55.030;38.710;2024-03-23T06:54:48;25.30;;;12.52;;
74543;SDS011;63016;55.030;38.710;2024-03-23T06:57:14;23.92;;;12.73;;
74543;SDS011;63016;55.030;38.710;2024-03-23T06:59:39;32.22;;;13.63;;
74543;SDS011;63016;55.030;38.710;2024-03-23T07:02:08;33.47;;;14.82;;
74543;SDS011;63016;55.030;38.710;2024-03-23T07:04:34;24.75;;;12.98;;
74543;SDS011;63016;55.030;38.710;2024-03-23T07:07:00;27.25;;;13.68;;
74543;SDS011;63016;55.030;38.710;2024-03-23T07:09:27;31.65;;;14.13;;
74543;SDS011;63016;55.030;38.710;2024-03-23T07:11:54;28.42;;;14.20;;
74543;SDS011;63016;55.030;38.710;2024-03-23T07:14:21;31.73;;;13.75;;
74543;SDS011;63016;55.030;38.710;2024-03-23T07:16:47;31.40;;;14.48;;
74543;SDS011;63016;55.030;38.710;2024-03-23T07:19:14;29.02;;;13.82;;
74543;SDS011;63016;55.030;38.710;2024-03-23T07:21:41;24.75;;;13.45;;
74543;SDS011;63016;55.030;38.710;2024-03-23T07:24:07;27.77;;;13.65;;
74543;SDS011;63016;55.030;38.710;2024-03-23T07:26:33;26.80;;;12.85;;
74543;SDS011;63016;55.030;38.710;2024-03-23T07:28:58;30.38;;;13.77;;
74543;SDS011;63016;55.030;38.710;2024-03-23T07:31:24;27.58;;;13.60;;
74543;SDS011;63016;55.030;38.710;2024-03-23T07:33:50;29.05;;;13.60;;
74543;SDS011;63016;55.030;38.710;2024-03-23T07:36:15;28.13;;;13.93;;
74543;SDS011;63016;55.030;38.710;2024-03-23T07:38:41;24.98;;;13.52;;
74543;SDS011;63016;55.030;38.710;2024-03-23T07:41:10;27.75;;;13.88;;
74543;SDS011;63016;55.030;38.710;2024-03-23T07:43:37;29.15;;;14.30;;
74543;SDS011;63016;55.030;38.710;2024-03-23T07:46:03;26.35;;;14.40;;
74543;SDS011;63016;55.030;38.710;2024-03-23T07:48:29;28.75;;;13.63;;
74543;SDS011;63016;55.030;38.710;2024-03-23T07:50:59;31.25;;;14.88;;
74543;SDS011;63016;55.030;38.710;2024-03-23T07:53:34;28.42;;;14.15;;
74543;SDS011;63016;55.030;38.710;2024-03-23T07:56:10;27.10;;;13.25;;
74543;SDS011;63016;55.030;38.710;2024-03-23T07:58:36;31.10;;;13.75;;
74543;SDS011;63016;55.030;38.710;2024-03-23T08:01:12;31.38;;;13.90;;
74543;SDS011;63016;55.030;38.710;2024-03-23T08:03:40;26.90;;;12.68;;
74543;SDS011;63016;55.030;38.710;2024-03-23T08:06:24;28.40;;;13.88;;
74543;SDS011;63016;55.030;38.710;2024-03-23T08:08:59;28.48;;;14.52;;
74543;SDS011;63016;55.030;38.710;2024-03-23T08:11:25;24.48;;;13.02;;
74543;SDS011;63016;55.030;38.710;2024-03-23T08:13:52;27.70;;;13.43;;
74543;SDS011;63016;55.030;38.710;2024-03-23T08:16:18;27.00;;;13.85;;
74543;SDS011;63016;55.030;38.710;2024-03-23T08:18:43;30.27;;;13.95;;
74543;SDS011;63016;55.030;38.710;2024-03-23T08:21:09;27.63;;;14.38;;
74543;SDS011;63016;55.030;38.710;2024-03-23T08:23:35;29.52;;;13.68;;
74543;SDS011;63016;55.030;38.710;2024-03-23T08:26:03;25.40;;;13.23;;
74543;SDS011;63016;55.030;38.710;2024-03-23T08:28:30;28.52;;;14.13;;
74543;SDS011;63016;55.030;38.710;2024-03-23T08:30:56;29.88;;;13.75;;
74543;SDS011;63016;55.030;38.710;2024-03-23T08:33:25;30.85;;;13.63;;
74543;SDS011;63016;55.030;38.710;2024-03-23T08:35:57;28.63;;;13.30;;
74543;SDS011;63016;55.030;38.710;2024-03-23T08:38:27;26.75;;;13.82;;
74543;SDS011;63016;55.030;38.710;2024-03-23T08:41:00;31.40;;;14.57;;
74543;SDS011;63016;55.030;38.710;2024-03-23T08:43:27;28.50;;;14.20;;
74543;SDS011;63016;55.030;38.710;2024-03-23T08:46:02;26.73;;;13.40;;
74543;SDS011;63016;55.030;38.710;2024-03-23T08:48:28;25.08;;;13.13;;
74543;SDS011;63016;55.030;38.710;2024-03-23T08:51:01;27.13;;;13.00;;
74543;SDS011;63016;55.030;38.710;2024-03-23T08:53:30;27.88;;;14.45;;
74543;SDS011;63016;55.030;38.710;2024-03-23T08:55:56;28.30;;;14.40;;
74543;SDS011;63016;55.030;38.710;2024-03-23T08:58:23;28.73;;;14.05;;
74543;SDS011;63016;55.030;38.710;2024-03-23T09:00:50;28.13;;;14.40;;
74543;SDS011;63016;55.030;38.710;2024-03-23T09:03:16;26.33;;;14.40;;
74543;SDS011;63016;55.030;38.710;2024-03-23T09:05:42;29.25;;;14.45;;
74543;SDS011;63016;55.030;38.710;2024-03-23T09:08:07;25.65;;;13.45;;
74543;SDS011;63016;55.030;38.710;2024-03-23T09:10:39;27.70;;;13.55;;
74543;SDS011;63016;55.030;38.710;2024-03-23T09:13:05;26.80;;;14.10;;
74543;SDS011;63016;55.030;38.710;2024-03-23T09:15:31;30.10;;;13.90;;
74543;SDS011;63016;55.030;38.710;2024-03-23T09:17:59;28.98;;;13.15;;
74543;SDS011;63016;55.030;38.710;2024-03-23T09:20:25;26.73;;;13.70;;
74543;SDS011;63016;55.030;38.710;2024-03-23T09:22:50;25.52;;;14.30;;
74543;SDS011;63016;55.030;38.710;2024-03-23T09:25:16;25.80;;;13.60;;
74543;SDS011;63016;55.030;38.710;2024-03-23T09:27:41;29.27;;;14.80;;
74543;SDS011;63016;55.030;38.710;2024-03-23T09:30:07;25.85;;;13.98;;
74543;SDS011;63016;55.030;38.710;2024-03-23T09:32:35;28.70;;;14.32;;
74543;SDS011;63016;55.030;38.710;2024-03-23T09:35:00;27.95;;;14.13;;
74543;SDS011;63016;55.030;38.710;2024-03-23T09:37:26;24.35;;;13.13;;
74543;SDS011;63016;55.030;38.710;2024-03-23T09:39:51;24.40;;;13.82;;
74543;SDS011;63016;55.030;38.710;2024-03-23T09:42:17;29.90;;;14.60;;
74543;SDS011;63016;55.030;38.710;2024-03-23T09:44:42;26.45;;;13.52;;
74543;SDS011;63016;55.030;38.710;2024-03-23T09:47:09;26.83;;;14.10;;
74543;SDS011;63016;55.030;38.710;2024-03-23T09:49:35;27.83;;;13.80;;
74543;SDS011;63016;55.030;38.710;2024-03-23T09:52:03;27.23;;;12.93;;
74543;SDS011;63016;55.030;38.710;2024-03-23T09:54:29;25.20;;;13.68;;
74543;SDS011;63016;55.030;38.710;2024-03-23T09:56:55;25.65;;;13.77;;
74543;SDS011;63016;55.030;38.710;2024-03-23T09:59:20;25.15;;;13.45;;
74543;SDS011;63016;55.030;38.710;2024-03-23T10:01:46;26.75;;;14.27;;
74543;SDS011;63016;55.030;38.710;2024-03-23T10:04:33;22.83;;;13.57;;
74543;SDS011;63016;55.030;38.710;2024-03-23T10:07:13;25.02;;;12.77;;
74543;SDS011;63016;55.030;38.710;2024-03-23T10:09:40;28.17;;;13.10;;
74543;SDS011;63016;55.030;38.710;2024-03-23T10:12:12;26.50;;;14.15;;
74543;SDS011;63016;55.030;38.710;2024-03-23T10:14:40;27.02;;;13.13;;
74543;SDS011;63016;55.030;38.710;2024-03-23T10:19:42;23.45;;;13.43;;
74543;SDS011;63016;55.030;38.710;2024-03-23T10:22:09;29.35;;;13.63;;
74543;SDS011;63016;55.030;38.710;2024-03-23T10:24:35;24.45;;;12.60;;
74543;SDS011;63016;55.030;38.710;2024-03-23T10:27:01;26.63;;;13.52;;
74543;SDS011;63016;55.030;38.710;2024-03-23T10:29:26;26.90;;;14.15;;
74543;SDS011;63016;55.030;38.710;2024-03-23T10:31:53;24.20;;;12.98;;
74543;SDS011;63016;55.030;38.710;2024-03-23T10:34:25;27.50;;;14.02;;
74543;SDS011;63016;55.030;38.710;2024-03-23T10:36:52;25.55;;;13.68;;
74543;SDS011;63016;55.030;38.710;2024-03-23T10:39:19;26.73;;;13.20;;
74543;SDS011;63016;55.030;38.710;2024-03-23T10:41:48;28.38;;;14.27;;
74543;SDS011;63016;55.030;38.710;2024-03-23T10:44:19;23.85;;;13.05;;
74543;SDS011;63016;55.030;38.710;2024-03-23T10:46:45;25.38;;;13.25;;
74543;SDS011;63016;55.030;38.710;2024-03-23T10:49:10;28.50;;;13.25;;
74543;SDS011;63016;55.030;38.710;2024-03-23T10:51:36;26.88;;;12.80;;
74543;SDS011;63016;55.030;38.710;2024-03-23T10:54:06;23.85;;;13.10;;
74543;SDS011;63016;55.030;38.710;2024-03-23T10:56:32;24.15;;;13.15;;
74543;SDS011;63016;55.030;38.710;2024-03-23T10:59:01;26.48;;;13.38;;
74543;SDS011;63016;55.030;38.710;2024-03-23T11:01:31;24.63;;;13.43;;
74543;SDS011;63016;55.030;38.710;2024-03-23T11:03:56;27.17;;;13.90;;
74543;SDS011;63016;55.030;38.710;2024-03-23T11:06:35;26.58;;;13.73;;
74543;SDS011;63016;55.030;38.710;2024-03-23T11:09:01;23.75;;;12.85;;
74543;SDS011;63016;55.030;38.710;2024-03-23T11:11:27;28.80;;;14.43;;
74543;SDS011;63016;55.030;38.710;2024-03-23T11:13:56;24.92;;;14.20;;
74543;SDS011;63016;55.030;38.710;2024-03-23T11:16:22;22.38;;;12.07;;
74543;SDS011;63016;55.030;38.710;2024-03-23T11:18:49;23.65;;;13.65;;
74543;SDS011;63016;55.030;38.710;2024-03-23T11:24:19;25.20;;;12.95;;
74543;SDS011;63016;55.030;38.710;2024-03-23T11:26:46;24.33;;;12.85;;
74543;SDS011;63016;55.030;38.710;2024-03-23T11:29:12;22.88;;;13.20;;
74543;SDS011;63016;55.030;38.710;2024-03-23T11:31:45;24.77;;;13.15;;
74543;SDS011;63016;55.030;38.710;2024-03-23T11:34:17;24.83;;;13.60;;
74543;SDS011;63016;55.030;38.710;2024-03-23T11:36:46;19.48;;;11.80;;
74543;SDS011;63016;55.030;38.710;2024-03-23T11:39:15;23.50;;;12.63;;
74543;SDS011;63016;55.030;38.710;2024-03-23T11:41:59;23.90;;;12.93;;
74543;SDS011;63016;55.030;38.710;2024-03-23T11:44:26;26.52;;;13.98;;
74543;SDS011;63016;55.030;38.710;2024-03-23T11:46:52;26.33;;;14.10;;
74543;SDS011;63016;55.030;38.710;2024-03-23T11:51:54;26.85;;;14.15;;
74543;SDS011;63016;55.030;38.710;2024-03-23T11:54:21;24.25;;;13.27;;
74543;SDS011;63016;55.030;38.710;2024-03-23T11:57:01;28.00;;;13.90;;
74543;SDS011;63016;55.030;38.710;2024-03-23T11:59:33;25.00;;;13.63;;
74543;SDS011;63016;55.030;38.710;2024-03-23T12:02:00;23.60;;;11.63;;
74543;SDS011;63016;55.030;38.710;2024-03-23T12:04:39;23.63;;;12.80;;
74543;SDS011;63016;55.030;38.710;2024-03-23T12:07:18;24.25;;;13.20;;
74543;SDS011;63016;55.030;38.710;2024-03-23T12:10:03;26.48;;;13.95;;
74543;SDS011;63016;55.030;38.710;2024-03-23T12:12:31;24.48;;;12.88;;
74543;SDS011;63016;55.030;38.710;2024-03-23T12:15:06;24.88;;;13.25;;
74543;SDS011;63016;55.030;38.710;2024-03-23T12:17:33;24.10;;;13.63;;
74543;SDS011;63016;55.030;38.710;2024-03-23T12:20:00;26.15;;;13.02;;
74543;SDS011;63016;55.030;38.710;2024-03-23T12:22:26;25.60;;;13.27;;
74543;SDS011;63016;55.030;38.710;2024-03-23T12:24:52;24.45;;;13.10;;
74543;SDS011;63016;55.030;38.710;2024-03-23T12:27:18;23.95;;;12.48;;
74543;SDS011;63016;55.030;38.710;2024-03-23T12:29:43;24.45;;;13.23;;
74543;SDS011;63016;55.030;38.710;2024-03-23T12:32:11;23.73;;;12.95;;
74543;SDS011;63016;55.030;38.710;2024-03-23T12:34:37;22.88;;;12.93;;
74543;SDS011;63016;55.030;38.710;2024-03-23T12:37:02;23.80;;;12.43;;
74543;SDS011;63016;55.030;38.710;2024-03-23T12:39:28;25.98;;;13.35;;
74543;SDS011;63016;55.030;38.710;2024-03-23T12:41:54;27.25;;;12.88;;
74543;SDS011;63016;55.030;38.710;2024-03-23T12:44:20;23.77;;;12.00;;
74543;SDS011;63016;55.030;38.710;2024-03-23T12:46:46;21.95;;;12.45;;
74543;SDS011;63016;55.030;38.710;2024-03-23T12:49:11;22.10;;;12.38;;
74543;SDS011;63016;55.030;38.710;2024-03-23T12:51:37;23.13;;;12.00;;
74543;SDS011;63016;55.030;38.710;2024-03-23T12:54:03;24.65;;;11.52;;
74543;SDS011;63016;55.030;38.710;2024-03-23T12:56:28;20.80;;;11.50;;
74543;SDS011;63016;55.030;38.710;2024-03-23T12:58:54;22.88;;;12.35;;
74543;SDS011;63016;55.030;38.710;2024-03-23T13:01:22;27.70;;;12.57;;
74543;SDS011;63016;55.030;38.710;2024-03-23T13:03:49;23.80;;;12.93;;
74543;SDS011;63016;55.030;38.710;2024-03-23T13:06:16;21.23;;;11.73;;
74543;SDS011;63016;55.030;38.710;2024-03-23T13:08:46;22.85;;;12.55;;
74543;SDS011;63016;55.030;38.710;2024-03-23T13:11:14;27.60;;;13.27;;
74543;SDS011;63016;55.030;38.710;2024-03-23T13:13:40;26.13;;;13.55;;
74543;SDS011;63016;55.030;38.710;2024-03-23T13:16:07;25.42;;;13.18;;
74543;SDS011;63016;55.030;38.710;2024-03-23T13:18:32;23.63;;;12.45;;
74543;SDS011;63016;55.030;38.710;2024-03-23T13:20:59;31.20;;;13.95;;
74543;SDS011;63016;55.030;38.710;2024-03-23T13:23:25;25.52;;;12.77;;
74543;SDS011;63016;55.030;38.710;2024-03-23T13:25:54;25.90;;;13.07;;
74543;SDS011;63016;55.030;38.710;2024-03-23T13:28:23;28.25;;;13.27;;
74543;SDS011;63016;55.030;38.710;2024-03-23T13:30:49;28.25;;;13.85;;
74543;SDS011;63016;55.030;38.710;2024-03-23T13:33:19;28.13;;;13.27;;
74543;SDS011;63016;55.030;38.710;2024-03-23T13:35:51;27.58;;;13.10;;
74543;SDS011;63016;55.030;38.710;2024-03-23T13:38:18;25.30;;;12.82;;
74543;SDS011;63016;55.030;38.710;2024-03-23T13:40:51;31.00;;;13.82;;
74543;SDS011;63016;55.030;38.710;2024-03-23T13:43:21;27.50;;;13.55;;
74543;SDS011;63016;55.030;38.710;2024-03-23T13:45:47;29.20;;;14.50;;
74543;SDS011;63016;55.030;38.710;2024-03-23T13:48:14;27.20;;;13.20;;
74543;SDS011;63016;55.030;38.710;2024-03-23T13:50:40;31.70;;;13.75;;
74543;SDS011;63016;55.030;38.710;2024-03-23T13:53:06;31.80;;;14.25;;
74543;SDS011;63016;55.030;38.710;2024-03-23T13:55:33;25.20;;;13.02;;
74543;SDS011;63016;55.030;38.710;2024-03-23T13:57:58;26.02;;;13.00;;
74543;SDS011;63016;55.030;38.710;2024-03-23T14:00:24;28.88;;;13.65;;
74543;SDS011;63016;55.030;38.710;2024-03-23T14:02:49;28.60;;;13.18;;
74543;SDS011;63016;55.030;38.710;2024-03-23T14:05:15;29.80;;;13.45;;
74543;SDS011;63016;55.030;38.710;2024-03-23T14:07:41;29.98;;;14.10;;
74543;SDS011;63016;55.030;38.710;2024-03-23T14:10:06;27.60;;;13.77;;
74543;SDS011;63016;55.030;38.710;2024-03-23T14:12:32;29.10;;;13.85;;
74543;SDS011;63016;55.030;38.710;2024-03-23T14:14:58;30.55;;;14.18;;
74543;SDS011;63016;55.030;38.710;2024-03-23T14:17:24;29.55;;;13.40;;
74543;SDS011;63016;55.030;38.710;2024-03-23T14:19:51;30.27;;;13.75;;
74543;SDS011;63016;55.030;38.710;2024-03-23T14:22:16;27.80;;;13.45;;
74543;SDS011;63016;55.030;38.710;2024-03-23T14:24:44;39.45;;;15.05;;
74543;SDS011;63016;55.030;38.710;2024-03-23T14:27:10;32.08;;;13.98;;
74543;SDS011;63016;55.030;38.710;2024-03-23T14:29:35;26.95;;;11.93;;
74543;SDS011;63016;55.030;38.710;2024-03-23T14:32:01;30.15;;;13.55;;
74543;SDS011;63016;55.030;38.710;2024-03-23T14:34:27;32.53;;;14.13;;
74543;SDS011;63016;55.030;38.710;2024-03-23T14:36:55;27.52;;;12.75;;
74543;SDS011;63016;55.030;38.710;2024-03-23T14:39:23;31.25;;;13.63;;
74543;SDS011;63016;55.030;38.710;2024-03-23T14:41:52;32.60;;;13.60;;
74543;SDS011;63016;55.030;38.710;2024-03-23T14:44:18;30.35;;;14.35;;
74543;SDS011;63016;55.030;38.710;2024-03-23T14:46:43;29.55;;;14.40;;
74543;SDS011;63016;55.030;38.710;2024-03-23T14:49:14;29.60;;;13.80;;
74543;SDS011;63016;55.030;38.710;2024-03-23T14:54:06;27.88;;;12.77;;
74543;SDS011;63016;55.030;38.710;2024-03-23T14:56:32;28.35;;;13.88;;
74543;SDS011;63016;55.030;38.710;2024-03-23T14:58:59;29.92;;;13.55;;
74543;SDS011;63016;55.030;38.710;2024-03-23T15:01:25;28.35;;;13.45;;
74543;SDS011;63016;55.030;38.710;2024-03-23T15:03:51;29.83;;;13.65;;
74543;SDS011;63016;55.030;38.710;2024-03-23T15:06:18;27.88;;;13.70;;
74543;SDS011;63016;55.030;38.710;2024-03-23T15:08:44;30.27;;;13.55;;
74543;SDS011;63016;55.030;38.710;2024-03-23T15:11:09;31.08;;;13.80;;